MBS International Airport
KMBS : now visible

Airfield :











YOU CAN JOIN US ON...

 
LOGIN :

Register | Disclaimer

   EN    FR    IT 

 









Legend :    VFR   Marginal VFR   IFR   Intensive IFR   Very Intensive IFR
Visi :
Ceiling :
>= 8 km
>= 3000ft
5 to 8 km
1000 to 3000 ft
1500m to 5 km
500 to 1000 ft
800 to 1500m
200 to 500 ft
< 800m
< 200 ft
Symbols :   Thunderstorms  Fog  Heavy snow  Heavy precipitations  Wind > 20 kt






- Airport Elevation : 668 ft
- IATA code : MBS


KMBS - MBS International

CURRENT METAR :
  • 260553Z AUTO 34011KT 10SM CLR 06/04 A3000 RMK AO2 RAB0459E11 SLP163 P0000 60007 T00560039 10089 20056 53005

EXPIRED METARs :
  • 260453Z AUTO 36011KT 10SM FEW037 BKN044 BKN055 07/04 A3000 RMK AO2 RAE29 SLP161 P0000 T00670044 401060067
  • 260353Z AUTO 35014KT 10SM -RA FEW028 BKN035 OVC043 07/05 A2998 RMK AO2 RAB09E18B52 SLP155 P0000 T00720050

TAF KMBS
Valid from the 26 at 06:00 until the 27 at 06:00 UTC


260529Z 2606/2706 01012G22KT P6SM SCT035 BKN045
FM261100 35012G22KT P6SM SCT035 SCT050
FM270100 35008KT P6SM SCT040
KZOB FIR / North America



MET'MAP, your aeronautical weather chart ! - Copyright ORBIFLY December 2007 - Disclaimer

ORBIFLY MET'MAP TEAM :

Programming & Development : Alexandra Zaïnal
Concept & original design : Baudouin d'Aumeries
Assistance for programming : Marc-Olivier Méhu
Technical & hardware support : Manuel Goepfert

Contact : metmap@orbifly.com




SOURCES & CREDITS :

   NOAA       Earth
Advisory